Time;durP1;ratioP1;P1;durP2;ratioP2;P2;SDS_P1;SDS_P2;PMS_P1;PMS_P2;Temp;Humidity;BMP_temperature;BMP_pressure;BME280_temperature;BME280_humidity;BME280_pressure;Samples;Min_cycle;Max_cycle;Signal;HPM_P1;HPM_P2
2024/01/13 00:00:01;;;;;;;28.08;17.38;;;10.90;80.20;;;;;;5091726;28;20054;-44
2024/01/13 00:02:27;;;;;;;28.92;18.17;;;11.00;78.90;;;;;;5091559;28;20020;-44
2024/01/13 00:04:52;;;;;;;29.02;17.55;;;11.00;78.70;;;;;;5091426;28;20035;-43
2024/01/13 00:07:18;;;;;;;25.50;17.02;;;10.90;78.60;;;;;;5091498;28;20061;-44
2024/01/13 00:09:44;;;;;;;25.13;16.50;;;10.80;78.70;;;;;;5091409;28;20020;-44
2024/01/13 00:12:09;;;;;;;26.17;16.35;;;10.80;78.90;;;;;;5091656;28;20039;-44
2024/01/13 00:14:35;;;;;;;29.25;16.95;;;10.70;79.10;;;;;;5091363;28;20031;-42
2024/01/13 00:17:00;;;;;;;29.80;17.77;;;10.60;80.60;;;;;;5092621;28;20491;-44
2024/01/13 00:19:26;;;;;;;26.92;17.88;;;10.80;80.90;;;;;;5091116;28;20024;-44
2024/01/13 00:21:51;;;;;;;27.48;17.60;;;11.10;79.60;;;;;;5091369;28;20062;-44
2024/01/13 00:24:17;;;;;;;28.85;16.85;;;11.20;78.50;;;;;;5091834;28;20036;-41
2024/01/13 00:26:43;;;;;;;25.83;16.13;;;11.20;78.10;;;;;;5091633;28;20085;-42
2024/01/13 00:29:10;;;;;;;24.42;15.73;;;11.10;78.20;;;;;;5092254;28;20020;-43
2024/01/13 00:31:36;;;;;;;29.67;16.83;;;11.00;78.30;;;;;;5091560;28;20020;-44
2024/01/13 00:34:02;;;;;;;26.80;16.15;;;10.90;78.40;;;;;;5091357;28;20508;-40
2024/01/13 00:36:28;;;;;;;28.30;17.65;;;10.80;78.70;;;;;;5091211;28;20447;-40
2024/01/13 00:38:53;;;;;;;25.95;16.67;;;10.70;80.10;;;;;;5091429;28;20032;-41
2024/01/13 00:41:19;;;;;;;26.67;17.27;;;10.90;80.50;;;;;;5091951;28;20027;-44
2024/01/13 00:43:44;;;;;;;27.02;18.23;;;11.20;79.20;;;;;;5091092;28;20506;-41
2024/01/13 00:46:10;;;;;;;28.17;17.23;;;11.30;78.10;;;;;;5091061;28;20099;-41
2024/01/13 00:48:36;;;;;;;25.73;17.05;;;11.30;77.80;;;;;;5090900;28;20539;-41
2024/01/13 00:51:02;;;;;;;25.85;16.42;;;11.20;77.90;;;;;;5091098;28;20024;-43
2024/01/13 00:53:28;;;;;;;26.38;17.13;;;11.10;78.00;;;;;;5090966;28;20082;-44
2024/01/13 00:55:54;;;;;;;27.20;16.67;;;11.00;78.20;;;;;;5091026;28;20024;-44
2024/01/13 00:58:19;;;;;;;29.00;18.42;;;10.90;78.40;;;;;;5090788;28;20023;-45
2024/01/13 01:00:45;;;;;;;28.65;17.83;;;10.80;79.90;;;;;;5091064;28;20529;-44
2024/01/13 01:03:11;;;;;;;26.17;17.58;;;11.00;80.30;;;;;;5090804;28;20028;-44
2024/01/13 01:05:36;;;;;;;28.58;17.98;;;11.30;79.20;;;;;;5091006;28;20103;-42
2024/01/13 01:08:03;;;;;;;29.77;18.58;;;11.40;78.00;;;;;;5090868;28;20024;-44
2024/01/13 01:10:28;;;;;;;27.67;18.10;;;11.30;77.60;;;;;;5091162;28;20044;-44
2024/01/13 01:12:54;;;;;;;24.20;16.55;;;11.20;77.60;;;;;;5090791;28;20173;-44
2024/01/13 01:15:20;;;;;;;25.75;17.27;;;11.10;77.80;;;;;;5090844;28;20039;-40
2024/01/13 01:17:45;;;;;;;26.45;16.58;;;11.10;78.00;;;;;;5090670;28;20024;-44
2024/01/13 01:20:11;;;;;;;31.80;17.15;;;11.00;78.20;;;;;;5090970;28;20032;-44
2024/01/13 01:22:37;;;;;;;31.83;19.25;;;10.80;79.70;;;;;;5090750;28;20031;-40
2024/01/13 01:25:03;;;;;;;31.83;19.33;;;11.00;80.10;;;;;;5090891;28;20407;-41
2024/01/13 01:27:28;;;;;;;29.05;19.58;;;11.30;79.00;;;;;;5090681;28;20055;-44
2024/01/13 01:29:54;;;;;;;28.67;17.98;;;11.50;77.90;;;;;;5092546;28;20029;-42
2024/01/13 01:32:19;;;;;;;30.25;18.35;;;11.40;77.50;;;;;;5094156;28;20032;-44
2024/01/13 01:34:45;;;;;;;28.48;18.48;;;11.30;77.40;;;;;;5094290;28;20055;-44
2024/01/13 01:37:11;;;;;;;27.23;17.17;;;11.20;77.60;;;;;;5094214;28;20028;-44
2024/01/13 01:39:36;;;;;;;27.35;16.88;;;11.10;77.80;;;;;;5094378;28;20028;-44
2024/01/13 01:42:02;;;;;;;26.67;17.75;;;11.00;78.10;;;;;;5094122;28;20391;-44
2024/01/13 01:44:28;;;;;;;28.77;18.67;;;10.90;79.40;;;;;;5094147;28;20058;-44
2024/01/13 01:46:57;;;;;;;31.95;19.75;;;11.00;79.90;;;;;;5095319;28;20494;-39
2024/01/13 01:49:23;;;;;;;30.83;18.90;;;11.40;79.00;;;;;;5094603;28;20511;-42
2024/01/13 01:51:49;;;;;;;30.77;18.58;;;11.50;77.70;;;;;;5094164;28;20035;-41
2024/01/13 01:54:15;;;;;;;26.65;16.50;;;11.40;77.40;;;;;;5093808;28;20056;-44
2024/01/13 01:56:41;;;;;;;29.77;17.42;;;11.30;77.40;;;;;;5093812;28;20485;-44
2024/01/13 01:59:07;;;;;;;26.85;17.13;;;11.20;77.50;;;;;;5093665;28;20032;-43
2024/01/13 02:01:32;;;;;;;27.45;17.00;;;11.10;77.60;;;;;;5094249;28;20102;-44
2024/01/13 02:04:00;;;;;;;28.42;18.17;;;11.10;78.00;;;;;;5093837;28;20035;-44
2024/01/13 02:06:26;;;;;;;29.40;18.45;;;10.90;79.40;;;;;;5093585;28;20027;-40
2024/01/13 02:08:52;;;;;;;32.03;19.85;;;11.10;79.90;;;;;;5093767;28;20024;-44
2024/01/13 02:11:19;;;;;;;30.33;18.48;;;11.40;78.90;;;;;;5094012;28;20020;-44
2024/01/13 02:13:47;;;;;;;30.33;19.00;;;11.50;77.60;;;;;;5094291;28;20389;-43
2024/01/13 02:16:13;;;;;;;28.90;18.20;;;11.50;77.40;;;;;;5093895;28;20032;-40
2024/01/13 02:18:39;;;;;;;25.00;16.10;;;11.40;77.40;;;;;;5094027;28;20034;-44
2024/01/13 02:21:05;;;;;;;26.48;17.27;;;11.30;77.40;;;;;;5093450;28;20343;-42
2024/01/13 02:23:31;;;;;;;26.15;16.95;;;11.20;77.60;;;;;;5093666;28;20039;-44
2024/01/13 02:25:57;;;;;;;28.48;19.00;;;11.10;78.60;;;;;;5093269;28;20024;-44
2024/01/13 02:28:22;;;;;;;31.75;18.70;;;11.00;79.20;;;;;;5093208;28;20035;-45
2024/01/13 02:30:48;;;;;;;31.33;19.35;;;11.10;79.80;;;;;;5093073;28;20076;-44
2024/01/13 02:33:14;;;;;;;29.77;18.95;;;11.40;79.00;;;;;;5093122;28;20382;-44
2024/01/13 02:35:39;;;;;;;32.10;18.90;;;11.50;77.60;;;;;;5093067;28;20027;-41
2024/01/13 02:38:05;;;;;;;29.23;17.70;;;11.50;77.30;;;;;;5093077;28;20143;-44
2024/01/13 02:40:30;;;;;;;30.40;18.52;;;11.40;77.30;;;;;;5092244;28;20032;-44
2024/01/13 02:42:56;;;;;;;29.80;17.63;;;11.30;77.40;;;;;;5092787;28;20016;-44
2024/01/13 02:45:22;;;;;;;26.80;17.25;;;11.20;77.50;;;;;;5092742;28;20375;-44
2024/01/13 02:47:59;;;;;;;29.52;17.52;;;11.10;77.70;;;;;;5092863;28;20024;-44
2024/01/13 02:50:25;;;;;;;30.63;18.58;;;10.90;79.00;;;;;;5093428;28;20020;-44
2024/01/13 02:52:51;;;;;;;31.27;18.73;;;11.10;79.70;;;;;;5092948;28;20031;-41
2024/01/13 02:55:16;;;;;;;28.58;18.05;;;11.40;78.90;;;;;;5092978;28;20385;-44
2024/01/13 02:57:43;;;;;;;28.10;17.95;;;11.50;77.60;;;;;;5092632;28;20030;-44
2024/01/13 03:00:09;;;;;;;27.85;17.88;;;11.50;77.20;;;;;;5092549;28;20024;-44
2024/01/13 03:02:35;;;;;;;26.60;17.65;;;11.40;77.20;;;;;;5092572;28;20394;-45
2024/01/13 03:05:01;;;;;;;27.02;17.13;;;11.30;77.40;;;;;;5092400;28;20505;-44
2024/01/13 03:07:26;;;;;;;27.63;16.60;;;11.20;77.40;;;;;;5092487;28;20023;-44
2024/01/13 03:09:52;;;;;;;30.85;19.42;;;11.10;77.70;;;;;;5093266;28;20036;-42
2024/01/13 03:12:18;;;;;;;28.85;18.63;;;11.00;79.00;;;;;;5093443;28;20028;-41
2024/01/13 03:14:43;;;;;;;29.02;18.63;;;11.10;79.60;;;;;;5093393;28;20486;-45
2024/01/13 03:17:09;;;;;;;26.50;16.67;;;11.40;78.80;;;;;;5093114;28;20354;-44
2024/01/13 03:19:34;;;;;;;29.33;18.63;;;11.60;77.60;;;;;;5092963;28;20031;-44
2024/01/13 03:22:00;;;;;;;31.10;19.27;;;11.50;77.10;;;;;;5092226;28;20083;-45
2024/01/13 03:24:25;;;;;;;30.75;18.27;;;11.40;77.10;;;;;;5092210;28;20028;-44
2024/01/13 03:26:51;;;;;;;29.58;18.35;;;11.40;77.30;;;;;;5092145;28;20027;-44
2024/01/13 03:29:17;;;;;;;27.13;17.33;;;11.30;77.40;;;;;;5090684;28;20478;-44
2024/01/13 03:31:42;;;;;;;27.98;18.35;;;11.10;77.50;;;;;;5092112;28;20032;-44
2024/01/13 03:34:08;;;;;;;31.33;18.77;;;11.00;78.80;;;;;;5092176;28;20102;-44
2024/01/13 03:36:33;;;;;;;33.58;19.10;;;11.10;79.50;;;;;;5092039;28;20067;-43
2024/01/13 03:38:59;;;;;;;29.42;19.58;;;11.40;79.00;;;;;;5091793;28;20035;-44
2024/01/13 03:41:25;;;;;;;30.48;19.40;;;11.60;77.60;;;;;;5090581;28;20028;-45
2024/01/13 03:43:51;;;;;;;29.70;18.95;;;11.50;77.00;;;;;;5091833;28;20059;-40
2024/01/13 03:46:17;;;;;;;32.55;18.58;;;11.50;77.00;;;;;;5091981;28;20108;-42
2024/01/13 03:48:43;;;;;;;28.15;17.58;;;11.40;77.20;;;;;;5092604;28;20024;-45
2024/01/13 03:51:10;;;;;;;30.80;17.60;;;11.20;77.30;;;;;;5091881;28;20032;-42
2024/01/13 03:53:35;;;;;;;30.05;18.92;;;11.20;77.40;;;;;;5091967;28;20100;-45
2024/01/13 03:56:04;;;;;;;29.13;19.27;;;11.00;78.60;;;;;;5091945;28;20051;-44
2024/01/13 03:58:29;;;;;;;29.50;19.55;;;11.10;79.40;;;;;;5091458;28;20031;-41
2024/01/13 04:00:55;;;;;;;32.38;20.08;;;11.40;79.20;;;;;;5092066;28;20386;-45
2024/01/13 04:03:21;;;;;;;29.15;18.80;;;11.50;77.60;;;;;;5091507;28;20020;-42
2024/01/13 04:05:47;;;;;;;30.88;19.33;;;11.50;77.20;;;;;;5091513;28;20027;-45
2024/01/13 04:08:12;;;;;;;30.23;18.27;;;11.40;77.10;;;;;;5092093;28;20016;-45
2024/01/13 04:10:38;;;;;;;30.50;18.25;;;11.30;77.20;;;;;;5092247;28;20405;-44
2024/01/13 04:13:04;;;;;;;27.38;17.05;;;11.20;77.30;;;;;;5091790;28;20032;-45
2024/01/13 04:15:29;;;;;;;28.88;18.30;;;11.10;77.50;;;;;;5091442;28;20028;-42
2024/01/13 04:17:55;;;;;;;29.17;18.38;;;11.00;78.70;;;;;;5091242;28;20032;-44
2024/01/13 04:20:21;;;;;;;29.92;18.75;;;11.10;79.40;;;;;;5091375;28;20074;-42
2024/01/13 04:22:47;;;;;;;29.30;19.27;;;11.30;79.10;;;;;;5091367;28;20107;-44
2024/01/13 04:25:12;;;;;;;29.75;18.23;;;11.50;77.60;;;;;;5091287;28;20119;-44
2024/01/13 04:27:38;;;;;;;28.77;18.52;;;11.50;77.10;;;;;;5091249;28;20073;-44
2024/01/13 04:30:04;;;;;;;26.27;16.80;;;11.40;77.00;;;;;;5091170;28;20036;-44
2024/01/13 04:32:30;;;;;;;28.27;16.98;;;11.30;77.20;;;;;;5091209;28;20428;-44
2024/01/13 04:34:56;;;;;;;28.10;17.13;;;11.20;77.30;;;;;;5091229;28;20111;-44
2024/01/13 04:37:21;;;;;;;31.15;18.90;;;11.20;77.40;;;;;;5091189;28;20031;-44
2024/01/13 04:39:47;;;;;;;31.38;18.92;;;11.00;78.60;;;;;;5091025;28;20031;-42
2024/01/13 04:42:12;;;;;;;29.65;18.85;;;11.00;79.30;;;;;;5091304;28;20394;-44
2024/01/13 04:44:38;;;;;;;29.63;18.63;;;11.40;79.20;;;;;;5089775;28;20017;-44
2024/01/13 04:47:04;;;;;;;27.90;17.98;;;11.50;77.60;;;;;;5091029;28;20021;-41
2024/01/13 04:49:30;;;;;;;30.52;18.70;;;11.50;77.10;;;;;;5091025;28;20107;-45
2024/01/13 04:51:56;;;;;;;30.30;18.27;;;11.40;77.00;;;;;;5091156;28;20115;-44
2024/01/13 04:54:21;;;;;;;30.65;17.95;;;11.40;77.20;;;;;;5090984;28;20024;-45
2024/01/13 04:56:47;;;;;;;25.45;17.08;;;11.20;77.20;;;;;;5091037;28;20466;-45
2024/01/13 04:59:12;;;;;;;29.85;17.85;;;11.10;77.30;;;;;;5091544;28;20265;-41
2024/01/13 05:01:38;;;;;;;30.80;18.95;;;11.10;78.60;;;;;;5091039;28;20082;-44
2024/01/13 05:04:04;;;;;;;29.95;18.60;;;11.10;79.20;;;;;;5091586;28;20032;-45
2024/01/13 05:06:29;;;;;;;29.27;18.98;;;11.40;79.10;;;;;;5095194;28;20052;-44
2024/01/13 05:08:55;;;;;;;31.58;19.48;;;11.50;77.60;;;;;;5094779;28;20103;-45
2024/01/13 05:11:21;;;;;;;29.33;17.90;;;11.50;76.90;;;;;;5095433;28;20470;-44
2024/01/13 05:13:46;;;;;;;30.08;18.48;;;11.40;76.90;;;;;;5095614;28;20114;-44
2024/01/13 05:16:12;;;;;;;29.92;17.48;;;11.40;77.10;;;;;;5094610;28;20020;-45
2024/01/13 05:18:37;;;;;;;26.58;16.95;;;11.30;77.20;;;;;;5094755;28;20032;-43
2024/01/13 05:21:03;;;;;;;30.63;18.25;;;11.10;77.30;;;;;;5094678;28;20024;-45
2024/01/13 05:23:29;;;;;;;30.23;18.88;;;11.00;78.50;;;;;;5094416;28;20466;-44
2024/01/13 05:25:54;;;;;;;29.15;18.15;;;11.10;79.20;;;;;;5094850;28;20470;-45
2024/01/13 05:28:20;;;;;;;30.15;19.00;;;11.30;79.70;;;;;;5094283;28;20094;-44
2024/01/13 05:30:46;;;;;;;32.67;18.10;;;11.50;77.50;;;;;;5094430;28;20024;-44
2024/01/13 05:33:12;;;;;;;29.33;17.48;;;11.50;77.00;;;;;;5094393;28;20093;-44
2024/01/13 05:35:38;;;;;;;27.40;17.08;;;11.40;76.90;;;;;;5094229;28;20024;-44
2024/01/13 05:38:04;;;;;;;27.88;17.60;;;11.40;77.10;;;;;;5094082;28;20030;-45
2024/01/13 05:40:29;;;;;;;24.85;15.93;;;11.20;77.10;;;;;;5094194;28;20085;-42
2024/01/13 05:42:55;;;;;;;28.30;17.30;;;11.20;77.40;;;;;;5094017;28;20501;-44
2024/01/13 05:45:20;;;;;;;27.33;17.05;;;11.00;78.50;;;;;;5092897;28;20020;-43
2024/01/13 05:47:46;;;;;;;30.98;18.13;;;11.00;79.10;;;;;;5093992;28;20095;-44
2024/01/13 05:50:12;;;;;;;29.05;17.58;;;11.30;79.00;;;;;;5094019;28;20124;-43
2024/01/13 05:52:38;;;;;;;28.20;17.88;;;11.50;77.60;;;;;;5094605;28;20032;-45
2024/01/13 05:55:04;;;;;;;28.00;17.58;;;11.50;77.10;;;;;;5093964;28;20397;-44
2024/01/13 05:57:30;;;;;;;26.48;16.65;;;11.40;76.90;;;;;;5094161;28;20020;-44
2024/01/13 05:59:55;;;;;;;29.90;17.17;;;11.30;77.00;;;;;;5094289;28;20035;-45
2024/01/13 06:02:21;;;;;;;26.92;16.35;;;11.20;77.20;;;;;;5094097;28;20024;-45
2024/01/13 06:04:47;;;;;;;28.42;18.17;;;11.10;77.30;;;;;;5094165;28;20085;-45
2024/01/13 06:07:14;;;;;;;28.10;17.67;;;11.00;78.70;;;;;;5094571;28;20032;-42
2024/01/13 06:09:39;;;;;;;28.85;18.55;;;11.10;79.30;;;;;;5094119;28;20069;-44
2024/01/13 06:12:07;;;;;;;29.35;18.73;;;11.40;78.80;;;;;;5093478;28;20491;-44
2024/01/13 06:14:32;;;;;;;25.92;16.45;;;11.50;77.40;;;;;;5093535;28;20024;-44
2024/01/13 06:16:58;;;;;;;27.88;17.50;;;11.50;77.00;;;;;;5093312;28;20505;-44
2024/01/13 06:19:23;;;;;;;29.83;16.60;;;11.40;76.90;;;;;;5093453;28;20028;-45
2024/01/13 06:21:49;;;;;;;24.13;14.95;;;11.30;77.00;;;;;;5093474;28;20020;-44
2024/01/13 06:24:15;;;;;;;25.88;16.00;;;11.30;77.30;;;;;;5093689;28;20020;-45
2024/01/13 06:26:41;;;;;;;26.50;16.65;;;11.20;77.40;;;;;;5094341;28;20024;-45
2024/01/13 06:29:07;;;;;;;25.88;16.42;;;11.10;78.40;;;;;;5093301;28;20024;-44
2024/01/13 06:31:33;;;;;;;28.02;17.38;;;11.20;79.10;;;;;;5093340;28;20028;-44
2024/01/13 06:33:59;;;;;;;27.85;17.10;;;11.50;78.40;;;;;;5093724;28;20042;-44
2024/01/13 06:36:25;;;;;;;25.52;15.95;;;11.70;77.10;;;;;;5093263;28;20020;-44
2024/01/13 06:38:50;;;;;;;27.58;16.50;;;11.70;76.60;;;;;;5092990;28;20115;-43
2024/01/13 06:41:16;;;;;;;23.67;15.30;;;11.60;76.50;;;;;;5093017;28;20016;-45
2024/01/13 06:43:42;;;;;;;24.13;15.25;;;11.50;76.50;;;;;;5092997;28;20016;-44
2024/01/13 06:46:08;;;;;;;21.77;13.52;;;11.50;76.70;;;;;;5092813;28;20016;-45
2024/01/13 06:48:33;;;;;;;26.55;15.90;;;11.40;76.80;;;;;;5093150;28;20093;-39
2024/01/13 06:50:59;;;;;;;22.92;14.30;;;11.30;77.90;;;;;;5093371;28;20055;-45
2024/01/13 06:53:24;;;;;;;26.90;15.98;;;11.40;78.40;;;;;;5092582;28;20059;-45
2024/01/13 06:55:50;;;;;;;22.10;14.20;;;11.70;77.90;;;;;;5092835;28;20020;-44
2024/01/13 06:58:16;;;;;;;22.65;14.27;;;11.80;76.60;;;;;;5092790;28;20028;-44
2024/01/13 07:00:42;;;;;;;21.40;14.15;;;11.80;76.20;;;;;;5092530;28;20051;-44
2024/01/13 07:03:08;;;;;;;22.58;14.02;;;11.70;76.20;;;;;;5092736;28;20024;-45
2024/01/13 07:05:33;;;;;;;21.33;13.77;;;11.60;76.30;;;;;;5092631;28;20026;-40
2024/01/13 07:08:00;;;;;;;20.52;13.18;;;11.50;76.40;;;;;;5092458;28;20052;-45
2024/01/13 07:10:27;;;;;;;22.58;13.65;;;11.50;76.60;;;;;;5092779;28;20435;-44
2024/01/13 07:12:52;;;;;;;22.60;15.00;;;11.30;77.60;;;;;;5092831;28;20103;-44
2024/01/13 07:15:18;;;;;;;21.75;13.75;;;11.40;78.30;;;;;;5092273;28;20055;-44
2024/01/13 07:17:44;;;;;;;24.27;13.98;;;11.70;77.80;;;;;;5092345;28;20379;-40
2024/01/13 07:20:10;;;;;;;20.67;13.77;;;11.80;76.50;;;;;;5092160;28;20028;-45
2024/01/13 07:22:35;;;;;;;20.05;13.50;;;11.80;76.10;;;;;;5092294;28;20031;-45
2024/01/13 07:25:02;;;;;;;21.08;12.90;;;11.70;76.10;;;;;;5092245;28;20028;-41
2024/01/13 07:27:27;;;;;;;20.60;12.88;;;11.60;76.30;;;;;;5092155;28;20032;-42
2024/01/13 07:29:53;;;;;;;21.52;13.55;;;11.50;76.40;;;;;;5091952;28;20028;-41
2024/01/13 07:32:19;;;;;;;20.08;13.32;;;11.40;76.60;;;;;;5092092;28;20469;-44
2024/01/13 07:34:44;;;;;;;23.25;14.07;;;11.30;77.80;;;;;;5092200;28;20393;-44
2024/01/13 07:37:10;;;;;;;20.83;13.13;;;11.40;78.40;;;;;;5092037;28;20336;-45
2024/01/13 07:39:36;;;;;;;22.50;13.20;;;11.60;77.90;;;;;;5091842;28;20020;-45
2024/01/13 07:42:02;;;;;;;19.42;13.25;;;11.70;76.60;;;;;;5091917;28;20035;-45
2024/01/13 07:44:27;;;;;;;19.25;12.40;;;11.70;76.20;;;;;;5091736;28;20035;-45
2024/01/13 07:46:58;;;;;;;18.80;12.25;;;11.70;76.20;;;;;;5091746;28;20502;-43
2024/01/13 07:49:23;;;;;;;18.98;12.02;;;11.60;76.30;;;;;;5092511;28;20024;-44
2024/01/13 07:51:53;;;;;;;17.75;10.90;;;11.50;76.40;;;;;;5091814;28;20031;-44
2024/01/13 07:54:19;;;;;;;23.73;13.60;;;11.40;76.70;;;;;;5091532;28;20463;-44
2024/01/13 07:56:44;;;;;;;20.42;12.75;;;11.30;78.00;;;;;;5091636;28;20106;-41
2024/01/13 07:59:10;;;;;;;20.25;12.85;;;11.40;78.50;;;;;;5091411;28;20042;-45
2024/01/13 08:01:35;;;;;;;20.52;12.75;;;11.70;77.80;;;;;;5092143;28;20016;-44
2024/01/13 08:04:01;;;;;;;18.45;11.73;;;11.80;76.60;;;;;;5091595;28;20520;-42
2024/01/13 08:06:29;;;;;;;18.40;11.60;;;11.80;76.30;;;;;;5091612;28;20027;-42
2024/01/13 08:08:56;;;;;;;18.33;11.27;;;11.70;76.30;;;;;;5092332;28;20031;-44
2024/01/13 08:11:21;;;;;;;15.88;10.23;;;11.60;76.30;;;;;;5091696;28;20055;-44
2024/01/13 08:13:47;;;;;;;17.30;11.15;;;11.60;76.50;;;;;;5091342;28;20059;-40
2024/01/13 08:16:13;;;;;;;18.88;12.13;;;11.50;76.60;;;;;;5091415;28;20036;-45
2024/01/13 08:18:38;;;;;;;17.90;11.82;;;11.40;77.50;;;;;;5091240;28;20016;-44
2024/01/13 08:21:04;;;;;;;18.48;11.18;;;11.60;78.20;;;;;;5091909;28;20028;-44
2024/01/13 08:23:29;;;;;;;17.17;10.48;;;11.80;77.40;;;;;;5091226;28;20482;-43
2024/01/13 08:25:55;;;;;;;16.98;10.90;;;12.00;76.20;;;;;;5091397;28;20428;-42
2024/01/13 08:28:21;;;;;;;17.33;11.02;;;11.90;75.80;;;;;;5091066;28;20028;-45
2024/01/13 08:30:46;;;;;;;16.50;10.45;;;11.90;75.80;;;;;;5091373;28;20024;-41
2024/01/13 08:33:12;;;;;;;15.95;9.95;;;11.90;75.80;;;;;;5091427;28;20024;-44
2024/01/13 08:35:37;;;;;;;14.27;10.05;;;11.90;76.00;;;;;;5091301;28;20537;-45
2024/01/13 08:38:03;;;;;;;15.90;10.82;;;11.80;76.00;;;;;;5091810;28;20099;-45
2024/01/13 08:40:29;;;;;;;18.85;11.30;;;11.70;77.00;;;;;;5095822;28;20027;-45
2024/01/13 08:42:56;;;;;;;16.48;10.90;;;11.70;77.40;;;;;;5096233;28;20024;-43
2024/01/13 08:45:29;;;;;;;17.13;10.93;;;12.10;76.90;;;;;;5095815;28;20027;-44
2024/01/13 08:47:58;;;;;;;17.25;10.65;;;12.20;75.70;;;;;;5096038;28;20043;-45
2024/01/13 08:50:24;;;;;;;15.52;9.60;;;12.20;75.30;;;;;;5095638;28;20097;-45
2024/01/13 08:52:55;;;;;;;14.80;10.02;;;12.10;75.40;;;;;;5095175;28;20032;-40
2024/01/13 08:55:24;;;;;;;15.20;9.65;;;12.10;75.40;;;;;;5095520;28;20107;-44
2024/01/13 08:57:50;;;;;;;13.55;8.60;;;12.10;75.40;;;;;;5095609;28;20024;-44
2024/01/13 09:00:17;;;;;;;17.52;10.63;;;12.00;75.50;;;;;;5095575;28;20035;-44
2024/01/13 09:02:43;;;;;;;17.58;10.15;;;11.80;76.50;;;;;;5095097;28;20055;-42
2024/01/13 09:05:09;;;;;;;16.75;10.63;;;12.00;77.00;;;;;;5094969;28;20103;-44
2024/01/13 09:07:36;;;;;;;17.25;10.60;;;12.30;76.30;;;;;;5094782;28;20021;-45
2024/01/13 09:10:06;;;;;;;14.02;9.52;;;12.40;75.30;;;;;;5094838;28;20058;-45
2024/01/13 09:12:31;;;;;;;15.93;9.38;;;12.30;74.90;;;;;;5095010;28;20049;-43
2024/01/13 09:14:57;;;;;;;15.00;10.18;;;12.30;75.00;;;;;;5094778;28;20070;-44
2024/01/13 09:17:23;;;;;;;13.35;8.65;;;12.20;75.00;;;;;;5094638;28;20389;-45
2024/01/13 09:19:49;;;;;;;14.43;8.93;;;12.20;75.10;;;;;;5094524;28;20024;-45
2024/01/13 09:22:14;;;;;;;16.27;10.35;;;12.10;75.20;;;;;;5094433;28;20032;-42
2024/01/13 09:24:43;;;;;;;14.43;9.85;;;12.00;76.10;;;;;;5094697;28;20115;-45
2024/01/13 09:27:09;;;;;;;15.82;9.60;;;12.10;76.60;;;;;;5094467;28;20016;-45
2024/01/13 09:29:34;;;;;;;18.08;9.98;;;12.40;76.00;;;;;;5094411;28;20321;-45
2024/01/13 09:32:00;;;;;;;19.05;14.60;;;12.50;74.90;;;;;;5094438;28;20032;-44
2024/01/13 09:34:26;;;;;;;17.27;13.45;;;12.40;71.40;;;;;;5094457;28;20485;-39
2024/01/13 09:36:52;;;;;;;17.75;12.73;;;12.30;71.30;;;;;;5094193;28;20035;-44
2024/01/13 09:39:18;;;;;;;16.88;13.20;;;12.30;71.80;;;;;;5094075;28;20501;-44
2024/01/13 09:41:47;;;;;;;18.10;14.13;;;12.20;72.30;;;;;;5094272;28;20214;-45
2024/01/13 09:44:22;;;;;;;17.90;13.00;;;12.10;73.20;;;;;;5094244;28;20081;-44
2024/01/13 09:46:52;;;;;;;17.25;13.95;;;12.10;74.20;;;;;;5094369;28;20481;-44
2024/01/13 09:49:20;;;;;;;15.88;12.73;;;12.40;74.20;;;;;;5093868;28;20504;-44
2024/01/13 09:51:46;;;;;;;16.50;13.50;;;12.50;73.00;;;;;;5093637;28;20077;-44
2024/01/13 09:54:21;;;;;;;15.65;12.45;;;12.50;72.70;;;;;;5094022;28;20085;-44
2024/01/13 09:56:47;;;;;;;15.02;11.88;;;12.50;72.90;;;;;;5094033;28;20051;-44
2024/01/13 09:59:14;;;;;;;14.50;11.73;;;12.40;73.00;;;;;;5093983;28;20405;-41
2024/01/13 10:01:40;;;;;;;13.13;10.35;;;12.40;73.10;;;;;;5093869;28;20042;-45
2024/01/13 10:04:07;;;;;;;14.45;11.55;;;12.40;74.00;;;;;;5094850;28;20020;-45
2024/01/13 10:06:36;;;;;;;15.40;11.95;;;12.30;73.60;;;;;;5094757;28;20016;-44
2024/01/13 10:09:03;;;;;;;15.05;11.82;;;12.30;74.50;;;;;;5093986;28;20032;-44
2024/01/13 10:11:29;;;;;;;15.15;11.98;;;12.50;74.80;;;;;;5093814;28;20055;-44
2024/01/13 10:14:05;;;;;;;13.77;11.35;;;12.70;73.60;;;;;;5093659;28;20485;-44
2024/01/13 10:16:33;;;;;;;14.23;10.77;;;12.80;72.90;;;;;;5093515;28;20032;-44
2024/01/13 10:19:03;;;;;;;14.77;9.85;;;12.70;72.80;;;;;;5093342;28;20051;-44
2024/01/13 10:21:29;;;;;;;13.27;10.00;;;12.70;72.80;;;;;;5093660;28;20020;-43
2024/01/13 10:23:56;;;;;;;12.18;9.68;;;12.70;72.80;;;;;;5093254;28;20058;-44
2024/01/13 10:26:25;;;;;;;13.65;9.80;;;12.70;73.00;;;;;;5093429;28;20023;-44
2024/01/13 10:28:51;;;;;;;13.70;9.75;;;12.70;73.00;;;;;;5093408;28;20020;-44
2024/01/13 10:31:18;;;;;;;13.27;10.18;;;12.50;73.90;;;;;;5093250;28;20095;-43
2024/01/13 10:33:51;;;;;;;12.48;9.70;;;12.60;74.30;;;;;;5093366;28;20082;-44
2024/01/13 10:36:21;;;;;;;13.02;9.52;;;12.90;73.30;;;;;;5093088;28;20044;-43
2024/01/13 10:38:46;;;;;;;12.77;9.82;;;12.90;72.60;;;;;;5093063;28;20030;-44
2024/01/13 10:41:13;;;;;;;13.25;9.27;;;12.80;72.50;;;;;;5093127;28;20020;-45
2024/01/13 10:43:41;;;;;;;13.13;8.95;;;12.80;72.60;;;;;;5093101;28;20028;-44
2024/01/13 10:46:11;;;;;;;11.43;8.77;;;12.80;72.70;;;;;;5093087;28;20032;-43
2024/01/13 10:48:45;;;;;;;11.63;8.68;;;12.80;72.70;;;;;;5092862;28;20481;-44
2024/01/13 10:51:42;;;;;;;13.38;9.93;;;12.80;72.80;;;;;;5091912;28;20027;-43
2024/01/13 10:54:09;;;;;;;12.15;9.55;;;12.70;73.80;;;;;;5092675;28;20020;-44
2024/01/13 10:56:36;;;;;;;14.80;9.93;;;12.90;74.00;;;;;;5092658;28;20047;-41
2024/01/13 10:59:02;;;;;;;11.45;8.95;;;13.00;72.80;;;;;;5093166;28;20056;-44
2024/01/13 11:01:28;;;;;;;12.48;8.93;;;13.00;72.40;;;;;;5092596;28;20078;-44
2024/01/13 11:03:54;;;;;;;11.30;8.30;;;13.00;72.40;;;;;;5092375;28;20069;-44
2024/01/13 11:06:24;;;;;;;10.45;7.70;;;13.00;72.40;;;;;;5092994;28;20024;-44
2024/01/13 11:08:51;;;;;;;10.60;8.68;;;13.00;72.50;;;;;;5092443;28;20035;-44
2024/01/13 11:11:24;;;;;;;12.38;8.77;;;12.90;72.40;;;;;;5093049;28;20028;-44
2024/01/13 11:13:57;;;;;;;10.70;8.07;;;12.90;73.00;;;;;;5092835;28;20485;-44
2024/01/13 11:16:26;;;;;;;12.10;8.25;;;12.90;73.70;;;;;;5092499;28;20062;-44
2024/01/13 11:18:53;;;;;;;10.57;8.15;;;13.10;73.50;;;;;;5092252;28;20020;-44
2024/01/13 11:21:27;;;;;;;11.18;8.02;;;13.20;72.40;;;;;;5092460;28;20024;-40
2024/01/13 11:23:52;;;;;;;10.50;7.70;;;13.20;72.10;;;;;;5092135;28;20028;-44
2024/01/13 11:26:31;;;;;;;8.32;6.80;;;13.10;72.10;;;;;;5092891;28;20018;-45
2024/01/13 11:28:57;;;;;;;9.00;6.85;;;13.10;72.20;;;;;;5092548;28;20054;-44
2024/01/13 11:31:39;;;;;;;9.07;6.75;;;13.10;72.20;;;;;;5092142;28;20533;-44
2024/01/13 11:34:09;;;;;;;10.75;7.65;;;13.10;72.30;;;;;;5092375;28;20021;-44
2024/01/13 11:36:40;;;;;;;9.13;7.15;;;13.00;72.90;;;;;;5092331;28;20020;-45
2024/01/13 11:39:08;;;;;;;10.02;7.53;;;13.00;73.40;;;;;;5092234;28;20030;-44
2024/01/13 11:41:39;;;;;;;9.40;7.15;;;13.30;72.90;;;;;;5090656;28;20450;-42
2024/01/13 11:44:05;;;;;;;8.63;6.45;;;13.30;72.00;;;;;;5092247;28;20363;-44
2024/01/13 11:46:38;;;;;;;9.10;6.40;;;13.30;72.00;;;;;;5092334;28;20020;-44
2024/01/13 11:49:04;;;;;;;8.90;6.55;;;13.20;72.00;;;;;;5091852;28;20386;-44
2024/01/13 11:51:58;;;;;;;8.80;6.10;;;13.30;72.80;;;;;;5091868;28;20386;-42
2024/01/13 11:54:25;;;;;;;8.27;6.28;;;13.20;72.00;;;;;;5092155;28;20023;-45
2024/01/13 11:56:51;;;;;;;9.30;6.63;;;13.20;72.00;;;;;;5092332;28;20103;-45
2024/01/13 11:59:17;;;;;;;7.97;6.50;;;13.00;72.80;;;;;;5091561;28;20446;-44
2024/01/13 12:01:44;;;;;;;8.52;6.68;;;13.20;73.20;;;;;;5091619;28;20016;-45
2024/01/13 12:04:10;;;;;;;9.27;7.00;;;13.30;72.20;;;;;;5091580;28;20099;-44
2024/01/13 12:06:36;;;;;;;9.38;6.13;;;13.40;71.70;;;;;;5091812;28;20119;-41
2024/01/13 12:09:01;;;;;;;9.68;6.78;;;13.30;71.70;;;;;;5092015;28;20460;-45
2024/01/13 12:11:27;;;;;;;8.68;6.10;;;13.30;72.50;;;;;;5091456;28;20107;-44
2024/01/13 12:13:53;;;;;;;8.30;6.28;;;13.30;71.80;;;;;;5091164;28;20103;-41
2024/01/13 12:16:19;;;;;;;7.60;5.80;;;13.30;71.80;;;;;;5091409;28;20402;-42
2024/01/13 12:18:48;;;;;;;10.63;7.10;;;13.30;71.80;;;;;;5091406;28;20050;-44
2024/01/13 12:21:14;;;;;;;9.77;6.57;;;13.20;73.50;;;;;;5091519;28;20099;-42
2024/01/13 12:23:42;;;;;;;7.88;6.10;;;13.30;73.00;;;;;;5091327;28;20023;-44
2024/01/13 12:26:07;;;;;;;9.55;6.68;;;13.50;72.30;;;;;;5092257;28;20538;-44